createdAt,value
2019-03-26T00:01:06.071Z,5.40
2019-03-26T00:03:39.822Z,5.33
2019-03-26T00:06:13.458Z,5.00
2019-03-26T00:08:48.319Z,4.53
2019-03-26T00:11:22.285Z,5.20
2019-03-26T00:13:57.845Z,4.77
2019-03-26T00:16:31.464Z,3.97
2019-03-26T00:19:04.973Z,3.50
2019-03-26T00:21:38.813Z,3.80
2019-03-26T00:24:12.749Z,3.70
2019-03-26T00:26:46.191Z,3.33
2019-03-26T00:29:18.793Z,4.40
2019-03-26T00:31:55.154Z,3.67
2019-03-26T00:34:32.347Z,3.90
2019-03-26T00:37:10.284Z,3.80
2019-03-26T00:39:44.448Z,4.27
2019-03-26T00:42:21.252Z,3.80
2019-03-26T00:44:56.500Z,4.20
2019-03-26T00:47:34.288Z,3.73
2019-03-26T00:50:08.658Z,4.30
2019-03-26T00:52:43.214Z,3.83
2019-03-26T00:55:22.737Z,3.93
2019-03-26T00:57:52.712Z,4.00
2019-03-26T01:00:44.209Z,3.17
2019-03-26T01:03:17.642Z,3.10
2019-03-26T01:05:52.287Z,2.97
2019-03-26T01:08:26.927Z,3.17
2019-03-26T01:11:01.665Z,3.20
2019-03-26T01:13:36.249Z,4.20
2019-03-26T01:16:11.025Z,4.70
2019-03-26T01:18:46.724Z,3.77
2019-03-26T01:21:20.336Z,4.97
2019-03-26T01:23:54.314Z,5.23
2019-03-26T01:26:28.824Z,5.17
2019-03-26T01:29:03.216Z,4.77
2019-03-26T01:31:39.452Z,4.00
2019-03-26T01:34:15.071Z,4.13
2019-03-26T01:36:50.024Z,3.97
2019-03-26T01:39:24.889Z,3.57
2019-03-26T01:41:59.675Z,4.03
2019-03-26T01:44:36.084Z,3.50
2019-03-26T01:47:16.837Z,3.10
2019-03-26T01:49:51.381Z,3.40
2019-03-26T01:52:25.705Z,2.93
2019-03-26T01:55:01.898Z,2.90
2019-03-26T01:57:40.358Z,2.67
2019-03-26T02:00:15.284Z,2.77
2019-03-26T02:02:51.220Z,2.80
2019-03-26T02:05:25.812Z,3.43
2019-03-26T02:08:01.362Z,2.77
2019-03-26T02:10:37.741Z,2.60
2019-03-26T02:13:12.387Z,2.73
2019-03-26T02:15:46.666Z,3.83
2019-03-26T02:18:20.994Z,3.37
2019-03-26T02:20:55.211Z,3.03
2019-03-26T02:23:29.154Z,3.33
2019-03-26T02:26:03.421Z,3.00
2019-03-26T02:28:37.574Z,3.20
2019-03-26T02:31:12.796Z,3.20
2019-03-26T02:33:47.540Z,2.87
2019-03-26T02:36:21.221Z,3.30
2019-03-26T02:38:55.845Z,2.80
2019-03-26T02:41:31.229Z,2.47
2019-03-26T02:44:06.004Z,2.83
2019-03-26T02:46:40.192Z,3.40
2019-03-26T02:49:17.921Z,2.90
2019-03-26T02:51:53.266Z,3.00
2019-03-26T02:54:28.071Z,3.47
2019-03-26T02:57:02.975Z,2.87
2019-03-26T02:59:37.476Z,3.13
2019-03-26T03:02:12.018Z,3.13
2019-03-26T03:04:47.817Z,3.23
2019-03-26T03:07:21.903Z,3.90
2019-03-26T03:09:57.741Z,2.60
2019-03-26T03:12:32.806Z,3.00
2019-03-26T03:15:07.031Z,2.20
2019-03-26T03:17:44.161Z,3.03
2019-03-26T03:20:18.738Z,2.97
2019-03-26T03:22:52.435Z,3.20
2019-03-26T03:25:27.177Z,3.00
2019-03-26T03:28:03.304Z,2.67
2019-03-26T03:30:37.597Z,2.47
2019-03-26T03:33:11.622Z,2.60
2019-03-26T03:35:52.767Z,3.47
2019-03-26T03:38:24.046Z,2.67
2019-03-26T03:40:58.571Z,2.50
2019-03-26T03:43:33.757Z,3.10
2019-03-26T03:46:09.101Z,2.70
2019-03-26T03:48:45.308Z,3.30
2019-03-26T03:51:21.777Z,2.73
2019-03-26T03:53:55.743Z,3.27
2019-03-26T03:56:32.139Z,4.70
2019-03-26T03:59:10.499Z,4.30
2019-03-26T04:01:46.272Z,4.00
2019-03-26T04:04:20.688Z,4.13
2019-03-26T04:06:55.440Z,3.40
2019-03-26T04:09:30.461Z,3.67
2019-03-26T04:12:06.793Z,3.53
2019-03-26T04:14:44.092Z,3.43
2019-03-26T04:17:22.339Z,2.97
2019-03-26T04:20:11.204Z,3.40
2019-03-26T04:22:45.137Z,3.97
2019-03-26T04:25:22.391Z,3.67
2019-03-26T04:27:59.553Z,2.80
2019-03-26T04:30:35.205Z,3.73
2019-03-26T04:33:10.134Z,3.40
2019-03-26T04:35:44.241Z,3.63
2019-03-26T04:38:18.739Z,3.67
2019-03-26T04:40:53.271Z,3.60
2019-03-26T04:43:27.721Z,3.03
2019-03-26T04:46:02.796Z,3.50
2019-03-26T04:48:36.820Z,3.73
2019-03-26T04:51:11.168Z,3.07
2019-03-26T04:53:45.322Z,2.83
2019-03-26T04:56:19.113Z,3.17
2019-03-26T04:58:54.478Z,2.70
2019-03-26T05:01:29.288Z,3.00
2019-03-26T05:04:05.378Z,3.27
2019-03-26T05:06:41.463Z,2.60
2019-03-26T05:09:15.427Z,2.50
2019-03-26T05:11:52.218Z,2.60
2019-03-26T05:14:25.815Z,2.77
2019-03-26T05:16:58.757Z,2.97
2019-03-26T05:19:33.912Z,2.97
2019-03-26T05:22:07.966Z,2.30
2019-03-26T05:24:42.279Z,2.60
2019-03-26T05:27:16.175Z,3.00
2019-03-26T05:29:48.919Z,3.20
2019-03-26T05:32:24.737Z,2.80
2019-03-26T05:34:57.308Z,2.40
2019-03-26T05:37:30.438Z,2.73
2019-03-26T05:40:03.377Z,3.03
2019-03-26T05:42:37.789Z,3.13
2019-03-26T05:45:11.040Z,3.13
2019-03-26T05:47:44.315Z,3.10
2019-03-26T05:50:17.715Z,3.13
2019-03-26T05:52:51.318Z,3.17
2019-03-26T05:55:25.163Z,2.83
2019-03-26T05:58:00.023Z,3.40
2019-03-26T06:00:35.845Z,3.07
2019-03-26T06:03:10.139Z,3.70
2019-03-26T06:05:45.330Z,3.50
2019-03-26T06:08:20.383Z,2.90
2019-03-26T06:10:55.389Z,2.80
2019-03-26T06:13:29.859Z,3.00
2019-03-26T06:16:04.765Z,3.53
2019-03-26T06:18:40.112Z,2.93
2019-03-26T06:21:14.034Z,3.63
2019-03-26T06:23:47.885Z,3.53
2019-03-26T06:26:22.079Z,3.30
2019-03-26T06:28:55.169Z,3.20
2019-03-26T06:31:29.029Z,3.07
2019-03-26T06:34:02.170Z,3.23
2019-03-26T06:36:36.706Z,3.03
2019-03-26T06:39:10.760Z,3.50
2019-03-26T06:41:44.079Z,3.57
2019-03-26T06:44:17.453Z,3.47
2019-03-26T06:46:50.007Z,3.80
2019-03-26T06:49:24.414Z,3.83
2019-03-26T06:51:58.478Z,3.30
2019-03-26T06:54:33.126Z,3.77
2019-03-26T06:57:08.588Z,3.30
2019-03-26T06:59:41.738Z,3.23
2019-03-26T07:02:14.189Z,3.10
2019-03-26T07:04:53.514Z,3.47
2019-03-26T07:07:31.399Z,3.33
2019-03-26T07:10:01.708Z,2.90
2019-03-26T07:12:35.841Z,3.53
2019-03-26T07:15:11.532Z,2.87
2019-03-26T07:17:45.099Z,3.27
2019-03-26T07:20:17.780Z,3.53
2019-03-26T07:22:50.251Z,2.90
2019-03-26T07:25:23.070Z,2.70
2019-03-26T07:27:56.338Z,3.33
2019-03-26T07:30:47.391Z,3.03
2019-03-26T07:33:20.055Z,4.03
2019-03-26T07:35:53.159Z,2.80
2019-03-26T07:38:26.386Z,2.60
2019-03-26T07:41:00.381Z,3.00
2019-03-26T07:43:33.392Z,3.10
2019-03-26T07:46:07.979Z,2.57
2019-03-26T07:48:41.681Z,3.20
2019-03-26T07:51:15.620Z,2.87
2019-03-26T07:53:49.532Z,2.93
2019-03-26T07:56:23.677Z,2.80
2019-03-26T07:58:57.998Z,3.57
2019-03-26T08:01:32.122Z,2.97
2019-03-26T08:04:06.926Z,3.60
2019-03-26T08:06:40.850Z,3.93
2019-03-26T08:09:14.194Z,2.63
2019-03-26T08:11:48.294Z,4.13
2019-03-26T08:14:22.819Z,3.33
2019-03-26T08:16:56.646Z,3.80
2019-03-26T08:19:29.744Z,3.37
2019-03-26T08:22:03.362Z,3.50
2019-03-26T08:24:36.143Z,3.30
2019-03-26T08:27:09.105Z,3.83
2019-03-26T08:29:42.393Z,3.10
2019-03-26T08:32:15.480Z,3.47
2019-03-26T08:34:49.893Z,3.73
2019-03-26T08:37:23.304Z,3.23
2019-03-26T08:39:56.383Z,3.23
2019-03-26T08:42:29.053Z,2.80
2019-03-26T08:45:02.564Z,3.40
2019-03-26T08:47:36.813Z,2.40
2019-03-26T08:50:11.846Z,2.50
2019-03-26T08:52:44.743Z,2.53
2019-03-26T08:55:17.596Z,3.30
2019-03-26T08:57:52.509Z,3.03
2019-03-26T09:00:25.217Z,2.80
2019-03-26T09:02:58.051Z,2.70
2019-03-26T09:05:30.754Z,2.70
2019-03-26T09:08:05.643Z,2.53
2019-03-26T09:10:46.634Z,2.50
2019-03-26T09:13:17.827Z,2.67
2019-03-26T09:15:50.216Z,2.77
2019-03-26T09:18:25.324Z,2.70
2019-03-26T09:20:58.034Z,2.83
2019-03-26T09:23:31.083Z,3.03
2019-03-26T09:26:05.799Z,2.50
2019-03-26T09:28:38.586Z,2.40
2019-03-26T09:31:13.979Z,2.60
2019-03-26T09:33:47.019Z,2.87
2019-03-26T09:36:19.450Z,3.37
2019-03-26T09:38:51.942Z,2.90
2019-03-26T09:41:24.639Z,3.00
2019-03-26T09:43:57.615Z,3.07
2019-03-26T09:46:31.544Z,2.37
2019-03-26T09:49:04.428Z,3.40
2019-03-26T09:51:37.165Z,2.67
2019-03-26T09:54:09.837Z,3.07
2019-03-26T09:56:43.950Z,3.27
2019-03-26T09:59:17.786Z,3.33
2019-03-26T10:01:50.826Z,3.23
2019-03-26T10:04:24.133Z,3.63
2019-03-26T10:06:59.792Z,3.83
2019-03-26T10:09:33.264Z,2.87
2019-03-26T10:12:08.424Z,3.50
2019-03-26T10:14:41.475Z,3.43
2019-03-26T10:17:14.779Z,3.50
2019-03-26T10:19:47.447Z,2.90
2019-03-26T10:22:20.473Z,3.43
2019-03-26T10:24:53.069Z,2.67
2019-03-26T10:27:25.738Z,3.47
2019-03-26T10:29:59.944Z,3.00
2019-03-26T10:32:33.660Z,2.60
2019-03-26T10:35:06.837Z,3.53
2019-03-26T10:37:40.135Z,2.97
2019-03-26T10:40:16.890Z,3.50
2019-03-26T10:42:50.443Z,3.33
2019-03-26T10:45:23.696Z,3.13
2019-03-26T10:47:56.751Z,3.47
2019-03-26T10:50:29.581Z,3.37
2019-03-26T10:53:03.625Z,3.30
2019-03-26T10:55:36.487Z,3.37
2019-03-26T10:58:11.200Z,3.40
2019-03-26T11:00:44.698Z,2.73
2019-03-26T11:03:19.209Z,3.33
2019-03-26T11:05:52.020Z,2.90
2019-03-26T11:08:25.376Z,2.93
2019-03-26T11:10:58.346Z,3.40
2019-03-26T11:13:31.345Z,3.50
2019-03-26T11:16:05.348Z,2.70
2019-03-26T11:18:39.124Z,2.93
2019-03-26T11:21:13.293Z,2.93
2019-03-26T11:23:46.727Z,2.80
2019-03-26T11:26:24.313Z,2.73
2019-03-26T11:28:57.154Z,2.83
2019-03-26T11:31:30.255Z,2.77
2019-03-26T11:34:03.982Z,2.60
2019-03-26T11:36:36.051Z,2.70
2019-03-26T11:39:09.864Z,2.90
2019-03-26T11:41:42.706Z,3.60
2019-03-26T11:44:15.996Z,1.93
2019-03-26T11:46:49.906Z,2.87
2019-03-26T11:49:22.293Z,2.10
2019-03-26T11:51:54.884Z,2.80
2019-03-26T11:54:27.930Z,2.57
2019-03-26T11:57:00.585Z,3.10
2019-03-26T11:59:34.305Z,3.30
2019-03-26T12:02:11.248Z,2.77
2019-03-26T12:04:44.471Z,2.97
2019-03-26T12:07:17.355Z,3.03
2019-03-26T12:09:50.014Z,2.63
2019-03-26T12:12:24.311Z,2.80
2019-03-26T12:14:56.975Z,2.70
2019-03-26T12:17:29.661Z,3.00
2019-03-26T12:20:02.830Z,2.60
2019-03-26T12:22:35.630Z,2.30
2019-03-26T12:25:09.134Z,2.50
2019-03-26T12:27:42.012Z,2.70
2019-03-26T12:30:17.273Z,2.53
2019-03-26T12:32:50.826Z,2.90
2019-03-26T12:35:31.502Z,2.90
2019-03-26T12:38:16.407Z,3.30
2019-03-26T12:40:51.402Z,2.40
2019-03-26T12:43:24.430Z,2.40
2019-03-26T12:45:57.705Z,2.57
2019-03-26T12:48:30.936Z,2.40
2019-03-26T12:51:04.027Z,2.40
2019-03-26T12:53:37.015Z,2.47
2019-03-26T12:56:11.540Z,2.43
2019-03-26T12:58:45.957Z,2.67
2019-03-26T13:01:19.104Z,2.77
2019-03-26T13:03:51.995Z,2.67
2019-03-26T13:06:25.769Z,2.83
2019-03-26T13:08:58.517Z,2.83
2019-03-26T13:11:33.095Z,3.17
2019-03-26T13:14:08.101Z,2.97
2019-03-26T13:16:42.377Z,3.37
2019-03-26T13:19:16.402Z,2.93
2019-03-26T13:21:49.769Z,2.83
2019-03-26T13:24:23.193Z,2.40
2019-03-26T13:26:56.193Z,3.37
2019-03-26T13:29:34.079Z,2.93
2019-03-26T13:32:07.036Z,3.57
2019-03-26T13:34:40.799Z,2.90
2019-03-26T13:37:13.992Z,3.00
2019-03-26T13:39:49.247Z,3.17
2019-03-26T13:42:22.253Z,3.50
2019-03-26T13:44:56.941Z,3.37
2019-03-26T13:47:29.659Z,3.77
2019-03-26T13:50:03.119Z,2.90
2019-03-26T13:52:37.009Z,3.13
2019-03-26T13:55:27.605Z,3.23
2019-03-26T13:58:01.445Z,3.83
2019-03-26T14:00:44.886Z,3.40
2019-03-26T14:03:19.987Z,3.17
2019-03-26T14:05:54.321Z,3.93
2019-03-26T14:08:28.471Z,3.27
2019-03-26T14:11:01.208Z,4.00
2019-03-26T14:13:35.672Z,4.10
2019-03-26T14:16:08.083Z,3.50
2019-03-26T14:18:40.974Z,3.63
2019-03-26T14:21:16.901Z,4.20
2019-03-26T14:23:50.283Z,4.00
2019-03-26T14:26:22.541Z,3.80
2019-03-26T14:28:59.346Z,3.90
2019-03-26T14:31:32.077Z,3.97
2019-03-26T14:34:05.629Z,3.73
2019-03-26T14:36:38.811Z,3.73
2019-03-26T14:39:11.688Z,3.93
2019-03-26T14:41:44.990Z,3.53
2019-03-26T14:44:17.861Z,3.50
2019-03-26T14:46:50.701Z,3.60
2019-03-26T14:49:24.049Z,3.70
2019-03-26T14:51:58.295Z,3.33
2019-03-26T14:54:32.025Z,3.70
2019-03-26T14:57:06.838Z,3.20
2019-03-26T14:59:39.799Z,3.07
2019-03-26T15:02:12.686Z,3.40
2019-03-26T15:04:45.573Z,3.33
2019-03-26T15:07:18.679Z,3.20
2019-03-26T15:09:52.491Z,3.27
2019-03-26T15:12:25.023Z,3.00
2019-03-26T15:14:58.438Z,3.50
2019-03-26T15:17:30.746Z,3.47
2019-03-26T15:20:04.003Z,3.80
2019-03-26T15:22:36.382Z,3.20
2019-03-26T15:25:12.610Z,3.50
2019-03-26T15:27:45.703Z,2.70
2019-03-26T15:30:18.863Z,2.63
2019-03-26T15:32:52.932Z,2.80
2019-03-26T15:35:36.007Z,3.23
2019-03-26T15:38:09.279Z,3.20
2019-03-26T15:40:42.528Z,2.67
2019-03-26T15:43:15.340Z,3.00
2019-03-26T15:45:47.940Z,2.93
2019-03-26T15:48:20.683Z,2.67
2019-03-26T15:50:55.145Z,3.47
2019-03-26T15:53:31.519Z,2.93
2019-03-26T15:56:09.968Z,2.90
2019-03-26T15:58:43.237Z,2.80
2019-03-26T16:01:16.414Z,2.80
2019-03-26T16:03:48.863Z,3.30
2019-03-26T16:06:22.148Z,3.27
2019-03-26T16:08:55.363Z,3.77
2019-03-26T16:11:36.184Z,3.43
2019-03-26T16:14:05.863Z,3.27
2019-03-26T16:16:40.994Z,3.60
2019-03-26T16:19:22.503Z,3.60
2019-03-26T16:21:57.323Z,2.80
2019-03-26T16:24:31.845Z,3.27
2019-03-26T16:27:06.480Z,3.63
2019-03-26T16:29:40.683Z,3.70
2019-03-26T16:32:14.787Z,3.23
2019-03-26T16:34:48.191Z,3.43
2019-03-26T16:37:21.812Z,3.17
2019-03-26T16:39:57.382Z,3.30
2019-03-26T16:42:31.152Z,3.30
2019-03-26T16:45:04.542Z,3.43
2019-03-26T16:47:37.995Z,3.20
2019-03-26T16:50:21.868Z,3.20
2019-03-26T16:52:56.842Z,3.17
2019-03-26T16:55:30.488Z,2.83
2019-03-26T16:58:03.798Z,3.10
2019-03-26T17:00:39.621Z,2.40
2019-03-26T17:03:14.767Z,2.90
2019-03-26T17:05:48.318Z,2.80
2019-03-26T17:08:22.829Z,3.00
2019-03-26T17:11:00.366Z,2.77
2019-03-26T17:13:33.378Z,3.03
2019-03-26T17:16:09.762Z,3.47
2019-03-26T17:18:42.632Z,3.50
2019-03-26T17:21:18.431Z,3.53
2019-03-26T17:23:55.156Z,3.83
2019-03-26T17:26:28.246Z,2.90
2019-03-26T17:29:03.821Z,3.70
2019-03-26T17:31:36.523Z,3.50
2019-03-26T17:34:09.910Z,2.73
2019-03-26T17:36:43.631Z,3.50
2019-03-26T17:39:17.820Z,3.10
2019-03-26T17:41:51.346Z,3.03
2019-03-26T17:44:26.760Z,2.90
2019-03-26T17:47:03.393Z,2.90
2019-03-26T17:49:37.569Z,3.30
2019-03-26T17:52:10.265Z,3.00
2019-03-26T17:54:45.668Z,3.63
2019-03-26T17:57:18.652Z,3.17
2019-03-26T17:59:52.834Z,3.07
2019-03-26T18:02:26.853Z,3.37
2019-03-26T18:05:00.347Z,3.50
2019-03-26T18:07:33.706Z,3.20
2019-03-26T18:10:07.457Z,3.43
2019-03-26T18:12:40.650Z,3.60
2019-03-26T18:15:13.635Z,3.27
2019-03-26T18:17:47.147Z,3.30
2019-03-26T18:20:31.823Z,3.93
2019-03-26T18:22:59.598Z,3.37
2019-03-26T18:25:33.486Z,4.03
2019-03-26T18:28:06.635Z,4.00
2019-03-26T18:30:39.647Z,3.90
2019-03-26T18:33:13.271Z,4.10
2019-03-26T18:35:46.451Z,3.40
2019-03-26T18:38:20.577Z,3.60
2019-03-26T18:40:56.246Z,3.60
2019-03-26T18:43:29.715Z,4.13
2019-03-26T18:46:03.709Z,3.40
2019-03-26T18:48:41.480Z,3.60
2019-03-26T18:51:15.311Z,3.53
2019-03-26T18:53:50.080Z,3.70
2019-03-26T18:56:24.168Z,3.10
2019-03-26T18:58:57.337Z,3.33
2019-03-26T19:01:31.267Z,3.30
2019-03-26T19:04:05.566Z,3.70
2019-03-26T19:06:43.150Z,3.33
2019-03-26T19:09:19.418Z,4.03
2019-03-26T19:11:54.168Z,3.63
2019-03-26T19:14:34.462Z,3.90
2019-03-26T19:17:08.885Z,3.87
2019-03-26T19:19:42.285Z,3.93
2019-03-26T19:22:16.470Z,3.73
2019-03-26T19:24:50.369Z,4.13
2019-03-26T19:27:23.833Z,4.07
2019-03-26T19:29:57.264Z,3.93
2019-03-26T19:32:38.144Z,4.47
2019-03-26T19:35:12.874Z,4.27
2019-03-26T19:37:48.214Z,5.00
2019-03-26T19:40:23.382Z,4.70
2019-03-26T19:43:10.202Z,4.87
2019-03-26T19:45:35.724Z,4.77
2019-03-26T19:48:12.800Z,4.70
2019-03-26T19:50:47.418Z,5.70
2019-03-26T19:53:22.577Z,5.00
2019-03-26T19:55:58.155Z,5.00
2019-03-26T19:58:32.946Z,5.03
2019-03-26T20:01:07.768Z,5.93
2019-03-26T20:03:42.631Z,4.90
2019-03-26T20:06:18.546Z,5.30
2019-03-26T20:08:52.434Z,5.53
2019-03-26T20:11:27.137Z,5.60
2019-03-26T20:14:12.145Z,6.63
2019-03-26T20:16:47.369Z,6.00
2019-03-26T20:19:24.284Z,6.83
2019-03-26T20:22:01.362Z,6.30
2019-03-26T20:24:36.967Z,6.47
2019-03-26T20:27:11.647Z,6.70
2019-03-26T20:29:46.108Z,6.57
2019-03-26T20:32:21.138Z,6.73
2019-03-26T20:34:55.484Z,6.00
2019-03-26T20:37:30.051Z,6.70
2019-03-26T20:40:05.997Z,7.03
2019-03-26T20:42:41.486Z,6.70
2019-03-26T20:45:17.672Z,6.67
2019-03-26T20:47:52.130Z,7.23
2019-03-26T20:50:25.886Z,6.83
2019-03-26T20:53:00.250Z,6.90
2019-03-26T20:55:36.484Z,6.90
2019-03-26T20:58:12.293Z,6.23
2019-03-26T21:00:47.373Z,7.83
2019-03-26T21:03:22.368Z,6.97
2019-03-26T21:06:00.674Z,7.60
2019-03-26T21:08:37.412Z,6.83
2019-03-26T21:11:11.844Z,8.33
2019-03-26T21:13:50.854Z,7.07
2019-03-26T21:16:23.712Z,7.97
2019-03-26T21:18:58.467Z,7.67
2019-03-26T21:21:33.545Z,8.23
2019-03-26T21:24:08.172Z,7.60
2019-03-26T21:26:43.430Z,7.80
2019-03-26T21:29:18.781Z,7.83
2019-03-26T21:31:53.345Z,7.37
2019-03-26T21:34:31.038Z,7.07
2019-03-26T21:37:04.628Z,7.87
2019-03-26T21:39:38.971Z,6.90
2019-03-26T21:42:14.107Z,7.63
2019-03-26T21:44:48.925Z,8.47
2019-03-26T21:47:25.554Z,9.70
2019-03-26T21:50:01.025Z,8.03
2019-03-26T21:52:36.379Z,8.90
2019-03-26T21:55:13.405Z,7.70
2019-03-26T21:57:47.552Z,8.80
2019-03-26T22:00:22.171Z,8.33
2019-03-26T22:02:57.205Z,8.10
2019-03-26T22:05:32.489Z,9.60
2019-03-26T22:08:06.783Z,8.70
2019-03-26T22:10:41.053Z,8.40
2019-03-26T22:13:15.802Z,7.77
2019-03-26T22:15:50.052Z,8.77
2019-03-26T22:18:25.324Z,9.10
2019-03-26T22:21:00.068Z,9.27
2019-03-26T22:23:34.107Z,8.33
2019-03-26T22:26:09.203Z,8.00
2019-03-26T22:28:44.858Z,9.20
2019-03-26T22:31:21.736Z,8.17
2019-03-26T22:33:56.081Z,8.40
2019-03-26T22:36:31.519Z,9.00
2019-03-26T22:39:06.868Z,7.80
2019-03-26T22:41:42.595Z,7.90
2019-03-26T22:44:30.799Z,8.20
2019-03-26T22:46:56.389Z,8.20
2019-03-26T22:49:34.906Z,8.33
2019-03-26T22:52:09.520Z,8.00
2019-03-26T22:54:43.732Z,8.03
2019-03-26T22:57:18.138Z,8.93
2019-03-26T22:59:52.872Z,8.10
2019-03-26T23:02:28.887Z,8.03
2019-03-26T23:05:05.358Z,8.30
2019-03-26T23:07:39.558Z,7.80
2019-03-26T23:10:29.538Z,8.17
2019-03-26T23:13:12.128Z,8.23
2019-03-26T23:15:48.072Z,8.47
2019-03-26T23:18:21.993Z,8.70
2019-03-26T23:20:57.011Z,8.60
2019-03-26T23:23:32.138Z,8.40
2019-03-26T23:26:05.784Z,8.50
2019-03-26T23:28:40.613Z,8.83
2019-03-26T23:31:14.278Z,8.17
2019-03-26T23:33:48.430Z,8.50
2019-03-26T23:36:22.002Z,8.90
2019-03-26T23:38:56.115Z,9.60
2019-03-26T23:41:30.087Z,9.50
2019-03-26T23:44:04.096Z,9.20
2019-03-26T23:46:38.061Z,9.87
2019-03-26T23:49:15.187Z,10.10
2019-03-26T23:51:48.544Z,9.50
2019-03-26T23:54:22.837Z,9.43
2019-03-26T23:56:56.545Z,9.47
2019-03-26T23:59:30.295Z,10.73
